Elko Regional Airport Elko US
ICAO: KEKO
IATA: EKO
Category: Medium
Scheduled Services: Yes

Elevation: 5140 ft
TransAlt. 18000 ft.

Airport Communications:
ASOS:119.275
SALT LAKE CNTR:132.25
CTAF:123
UNICOM:123

KEKO Zoom In..

If you have problems with the map follow the link
https://www.worldairports.se/pages/airport.php?
ICAO=KEKO

Runways:

(A) RW 05 length 7214 ft width 150 ft
---- / hdg 53

(B) RW 12 length 2871 ft width 60 ft
---- / hdg 118

(C) RW 23 length 7214 ft width 150 ft
---- / hdg 233

(D) RW 30 length 2871 ft width 60 ft
---- / hdg 298

Location; KEKO
Day. 14 / Time. 10.56 Zulu
* Altimeter: 30.49
* Temperature: -05° c. -23°f.
* Wind from: 080° Speed 04 kn.
Dewpoint: -14° c.
Visibility: 10 Statute Miles.
Clouds: Clear (automated report).

KEKO 141056Z AUTO 08004KT 10SM CLR M05/M14 A3049 RMK AO2 SLP339 T10501144


Wind From 080°
Speed 04 kn.

 
 
jpsmedia.com for Web Design worldairports.se 2018   terms of use